< < Back
Terminal Aerodrome Forecast


Current Version              Previous Versions:   1  2  3  4  5  6  7  8  9  

Terminal Aerodrome Forecast

955
FTUS44 KMOB 011700
TAFPNS
TAF
KPNS 011726Z 0118/0218 VRB04KT P6SM FEW023 FEW035
     FM020900 15004KT 5SM BR BKN250=

Latest METAR

656
SAUS70 KWBC 020200 RRA
MTRPNS
METAR KPNS 020153Z 00000KT 10SM CLR 23/22 A2997 RMK AO2 SLP152
T02330217


USA.gov is the U.S. government's official web portal to all federal, state and local government web resources and services.